createdAt,value
2023-04-24T00:01:56.295Z,0
2023-04-24T00:06:57.861Z,0
2023-04-24T00:11:59.597Z,0
2023-04-24T00:17:01.358Z,0
2023-04-24T00:22:02.765Z,0.88715
2023-04-24T00:27:04.278Z,0
2023-04-24T00:32:05.653Z,0
2023-04-24T00:37:06.946Z,0
2023-04-24T00:42:08.195Z,0
2023-04-24T00:47:09.459Z,0
2023-04-24T00:52:10.924Z,0.88715
2023-04-24T00:57:12.170Z,0.88715
2023-04-24T01:02:14.132Z,0
2023-04-24T01:07:15.506Z,0
2023-04-24T01:12:17.013Z,0
2023-04-24T01:17:18.246Z,0
2023-04-24T01:22:19.544Z,0
2023-04-24T01:27:20.895Z,0
2023-04-24T01:32:22.203Z,0
2023-04-24T01:37:23.495Z,0
2023-04-24T01:42:24.908Z,0
2023-04-24T01:47:26.277Z,0
2023-04-24T01:52:27.644Z,0
2023-04-24T01:57:29.216Z,0
2023-04-24T02:02:30.555Z,0
2023-04-24T02:07:31.969Z,0.88715
2023-04-24T02:12:33.578Z,0
2023-04-24T02:17:34.833Z,0
2023-04-24T02:22:36.108Z,0
2023-04-24T02:27:37.580Z,0.88715
2023-04-24T02:32:38.984Z,0
2023-04-24T02:37:40.255Z,0
2023-04-24T02:42:41.856Z,0
2023-04-24T02:47:43.373Z,0.88715
2023-04-24T02:52:44.679Z,0
2023-04-24T02:57:46.087Z,0
2023-04-24T03:02:47.431Z,0
2023-04-24T03:07:48.949Z,0
2023-04-24T03:12:50.512Z,0.88715
2023-04-24T03:17:51.889Z,0
2023-04-24T03:22:53.250Z,0.88715
2023-04-24T03:27:54.855Z,0
2023-04-24T03:32:56.451Z,0.88715
2023-04-24T03:37:57.854Z,0
2023-04-24T03:42:59.356Z,0
2023-04-24T03:48:00.727Z,0
2023-04-24T03:53:02.198Z,0.88715
2023-04-24T03:58:03.692Z,0.88715
2023-04-24T04:03:05.559Z,0.88715
2023-04-24T04:08:07.353Z,1.16185
2023-04-24T04:13:08.916Z,0.8296
2023-04-24T04:18:10.406Z,2.01475
2023-04-24T04:23:12.012Z,6.91595
2023-04-24T04:28:13.743Z,14.4404
2023-04-24T04:33:15.169Z,27.58965
2023-04-24T04:38:16.435Z,45.20185
2023-04-24T04:43:17.792Z,63.79145
2023-04-24T04:48:19.145Z,85.31325
2023-04-24T04:53:20.825Z,104.6958
2023-04-24T04:58:22.228Z,122.73205
2023-04-24T05:03:23.839Z,135.5124
2023-04-24T05:08:27.415Z,153.3642
2023-04-24T05:13:39.013Z,170.42305
2023-04-24T05:18:41.374Z,179.9023
2023-04-24T05:23:42.790Z,188.2197
2023-04-24T05:28:44.055Z,201.97745
2023-04-24T05:33:45.316Z,211.27225
2023-04-24T05:38:46.683Z,219.9034
2023-04-24T05:43:48.056Z,238.493
2023-04-24T05:48:49.484Z,250.68385
2023-04-24T05:53:51.042Z,256.82585
2023-04-24T05:58:52.372Z,269.69935
2023-04-24T06:03:53.890Z,277.8513
2023-04-24T06:08:55.596Z,307.65435
2023-04-24T06:13:57.302Z,350.60665
2023-04-24T06:18:58.887Z,400.4749
2023-04-24T06:24:01.256Z,480.6254
2023-04-24T06:29:02.560Z,547.86625
2023-04-24T06:34:03.954Z,585.1386
2023-04-24T06:39:05.252Z,600.26165
2023-04-24T06:44:06.835Z,622.17135
2023-04-24T06:49:08.224Z,637.2944
2023-04-24T06:54:09.511Z,663.42745
2023-04-24T06:59:10.907Z,675.0098
2023-04-24T07:04:12.279Z,697.47285
2023-04-24T07:09:13.776Z,711.3789
2023-04-24T07:14:15.245Z,730.54085
2023-04-24T07:19:16.704Z,757.83575
2023-04-24T07:24:19.024Z,766.90995
2023-04-24T07:29:21.259Z,782.34675
2023-04-24T07:34:22.805Z,803.5928
2023-04-24T07:39:24.346Z,804.7185
2023-04-24T07:44:25.635Z,814.1616
2023-04-24T07:49:26.862Z,822.2584
2023-04-24T07:54:28.159Z,841.7341
2023-04-24T07:59:29.619Z,868.9187
2023-04-24T08:04:31.187Z,882.53
2023-04-24T08:09:32.648Z,902.5039
2023-04-24T08:14:33.904Z,915.2671
2023-04-24T08:19:35.477Z,928.82325
2023-04-24T08:24:36.900Z,959.43825
2023-04-24T08:29:38.373Z,967.7385
2023-04-24T08:34:39.777Z,979.8932
2023-04-24T08:39:41.164Z,986.23865
2023-04-24T08:44:42.847Z,1001.43585
2023-04-24T08:49:44.522Z,1034.15395
2023-04-24T08:54:46.055Z,1046.78785
2023-04-24T08:59:47.739Z,1066.467
2023-04-24T09:04:49.421Z,1056.41725
2023-04-24T09:09:50.822Z,1081.7212
2023-04-24T09:14:52.221Z,1089.9473
2023-04-24T09:19:53.908Z,1088.21495
2023-04-24T09:24:55.483Z,1083.84515
2023-04-24T09:29:57.087Z,1083.3488
2023-04-24T09:34:58.459Z,1102.3453
2023-04-24T09:39:59.762Z,1123.4449
2023-04-24T09:45:12.098Z,1096.3173
2023-04-24T09:50:16.153Z,1053.37845
2023-04-24T09:55:18.454Z,1167.135
2023-04-24T10:00:20.293Z,1256.80645
2023-04-24T10:05:21.871Z,1219.99245
2023-04-24T10:10:23.431Z,1190.92535
2023-04-24T10:15:25.320Z,1178.55005
2023-04-24T10:20:26.892Z,1225.30165
2023-04-24T10:25:28.238Z,1324.24705
2023-04-24T10:30:29.549Z,1234.9635
2023-04-24T10:35:30.980Z,1306.68445
2023-04-24T10:40:32.241Z,1567.5603
2023-04-24T10:45:33.616Z,1524.4027
2023-04-24T10:50:35.173Z,1516.23175
2023-04-24T10:55:36.602Z,1680.25975
2023-04-24T11:00:38.100Z,1730.57105
2023-04-24T11:05:39.489Z,1772.0839
2023-04-24T11:10:41.020Z,1790.1563
2023-04-24T11:15:42.499Z,1821.6727
2023-04-24T11:20:43.788Z,1850.95855
2023-04-24T11:25:45.525Z,1864.16295
2023-04-24T11:30:47.224Z,1896.8792
2023-04-24T11:35:48.790Z,1922.12615
2023-04-24T11:40:50.401Z,1958.1435
2023-04-24T11:45:52.307Z,1890.3113
2023-04-24T11:50:53.745Z,2004.91225
2023-04-24T11:55:55.348Z,1998.03245
2023-04-24T12:00:56.706Z,1652.54315
2023-04-24T12:05:58.314Z,2023.2414
2023-04-24T12:10:59.679Z,2030.9123
2023-04-24T12:16:01.059Z,2010.6798
2023-04-24T12:21:02.499Z,2071.3356
2023-04-24T12:26:04.578Z,2070.2099
2023-04-24T12:31:06.260Z,2088.09785
2023-04-24T12:36:07.614Z,2115.87195
2023-04-24T12:41:09.088Z,2157.5141
2023-04-24T12:46:10.749Z,2156.5747
2023-04-24T12:51:12.080Z,1935.61235
2023-04-24T12:56:14.262Z,1385.5063
2023-04-24T13:01:15.745Z,2057.84805
2023-04-24T13:06:17.352Z,2070.81285
2023-04-24T13:11:18.920Z,2064.04335
2023-04-24T13:16:20.282Z,1962.29505
2023-04-24T13:21:21.896Z,1493.72565
2023-04-24T13:26:23.681Z,1186.7711
2023-04-24T13:31:25.262Z,994.43835
2023-04-24T13:36:26.691Z,760.5339
2023-04-24T13:41:27.973Z,1193.45485
2023-04-24T13:46:29.430Z,1177.33725
2023-04-24T13:51:31.226Z,1245.5745
2023-04-24T13:56:33.265Z,1271.6677
2023-04-24T14:01:34.665Z,1635.16685
2023-04-24T14:06:36.315Z,865.302
2023-04-24T14:11:37.826Z,876.95665
2023-04-24T14:16:39.582Z,1324.0404
2023-04-24T14:21:41.178Z,693.1582
2023-04-24T14:26:42.611Z,520.42675
2023-04-24T14:31:44.252Z,295.4672
2023-04-24T14:36:45.659Z,258.97065
2023-04-24T14:41:47.227Z,336.1718
2023-04-24T14:46:48.857Z,382.22545
2023-04-24T14:51:50.167Z,184.1882
2023-04-24T14:56:51.484Z,156.8743
2023-04-24T15:01:59.137Z,156.94845
2023-04-24T15:07:10.430Z,275.0722
2023-04-24T15:12:12.025Z,148.8544
2023-04-24T15:17:13.656Z,149.2688
2023-04-24T15:22:16.115Z,107.67015
2023-04-24T15:27:17.623Z,59.0166
2023-04-24T15:32:19.292Z,42.41795
2023-04-24T15:37:20.650Z,26.02275
2023-04-24T15:42:21.916Z,15.916
2023-04-24T15:47:23.449Z,9.60855
2023-04-24T15:52:24.741Z,4.0295
2023-04-24T15:57:26.120Z,1.6592
2023-04-24T16:02:27.558Z,0.4148
2023-04-24T16:07:29.225Z,0.88715
2023-04-24T16:12:30.470Z,0.88715
2023-04-24T16:17:31.809Z,0.88715
2023-04-24T16:22:33.384Z,0
2023-04-24T16:27:34.934Z,0.88715
2023-04-24T16:32:36.651Z,0
2023-04-24T16:37:38.349Z,0
2023-04-24T16:42:39.906Z,0
2023-04-24T16:47:41.428Z,0
2023-04-24T16:52:42.826Z,0
2023-04-24T16:57:44.152Z,0
2023-04-24T17:02:45.860Z,0.88715
2023-04-24T17:07:47.545Z,0
2023-04-24T17:12:49.122Z,0
2023-04-24T17:17:50.902Z,0
2023-04-24T17:22:52.232Z,0
2023-04-24T17:27:53.592Z,0
2023-04-24T17:32:55.084Z,0
2023-04-24T17:37:56.385Z,0
2023-04-24T17:42:57.775Z,0
2023-04-24T17:47:59.397Z,0
2023-04-24T17:53:00.812Z,0
2023-04-24T17:58:02.374Z,0
2023-04-24T18:03:03.975Z,0
2023-04-24T18:08:05.422Z,0
2023-04-24T18:13:07.106Z,0
2023-04-24T18:18:08.713Z,0
2023-04-24T18:23:10.370Z,0
2023-04-24T18:28:11.931Z,0
2023-04-24T18:33:13.534Z,0
2023-04-24T18:38:15.096Z,0
2023-04-24T18:43:16.625Z,0
2023-04-24T18:48:18.222Z,0
2023-04-24T18:53:19.813Z,0
2023-04-24T18:58:21.066Z,0.88715
2023-04-24T19:03:22.968Z,0
2023-04-24T19:08:24.507Z,0
2023-04-24T19:13:25.921Z,0
2023-04-24T19:18:27.305Z,0
2023-04-24T19:23:28.889Z,0
2023-04-24T19:28:30.255Z,0
2023-04-24T19:33:31.534Z,0
2023-04-24T19:38:33.100Z,0
2023-04-24T19:43:34.604Z,0
2023-04-24T19:48:36.328Z,0
2023-04-24T19:53:37.873Z,0
2023-04-24T19:58:39.533Z,0
2023-04-24T20:03:41.334Z,0
2023-04-24T20:08:42.859Z,0.88715
2023-04-24T20:13:44.185Z,0
2023-04-24T20:18:45.756Z,0.88715
2023-04-24T20:23:47.130Z,0
2023-04-24T20:28:48.661Z,0
2023-04-24T20:33:50.440Z,0
2023-04-24T20:38:51.983Z,0
2023-04-24T20:43:53.583Z,0
2023-04-24T20:48:54.963Z,0
2023-04-24T20:53:56.536Z,0
2023-04-24T20:58:57.916Z,0
2023-04-24T21:03:59.497Z,0
2023-04-24T21:09:00.997Z,0.88715
2023-04-24T21:14:02.275Z,0
2023-04-24T21:19:03.846Z,0
2023-04-24T21:24:05.152Z,0
2023-04-24T21:29:06.509Z,0
2023-04-24T21:34:08.074Z,0
2023-04-24T21:39:09.687Z,0
2023-04-24T21:44:11.277Z,0
2023-04-24T21:49:12.832Z,0
2023-04-24T21:54:14.427Z,0
2023-04-24T21:59:15.977Z,0
2023-04-24T22:04:17.821Z,0
2023-04-24T22:09:19.507Z,0
2023-04-24T22:14:21.138Z,0.88715
2023-04-24T22:19:22.906Z,0
2023-04-24T22:24:24.685Z,0
2023-04-24T22:29:26.422Z,0
2023-04-24T22:34:27.982Z,0
2023-04-24T22:39:29.363Z,0
2023-04-24T22:44:30.670Z,0
2023-04-24T22:49:32.020Z,0
2023-04-24T22:54:33.325Z,0
2023-04-24T22:59:34.767Z,0
2023-04-24T23:04:36.515Z,0
2023-04-24T23:09:37.781Z,0.88715
2023-04-24T23:14:39.128Z,0
2023-04-24T23:19:40.605Z,0
2023-04-24T23:24:41.842Z,0
2023-04-24T23:29:43.315Z,0
2023-04-24T23:34:44.824Z,0
2023-04-24T23:39:46.360Z,0
2023-04-24T23:44:47.920Z,0
2023-04-24T23:49:49.652Z,0
2023-04-24T23:54:51.190Z,0
2023-04-24T23:59:52.982Z,0
